<?xml version="1.0" encoding="UTF-8" standalone="no" ?>
<gpx xmlns="http://www.topografix.com/GPX/1/1" xmlns:xsi="http://www.w3.org/2001/XMLSchema-instance" xsi:schemaLocation="http://www.topografix.com/GPX/1/1 http://www.topografix.com/GPX/1/1/gpx.xsd" version="1.1" creator="VisuGPX - https://www.visugpx.com">
  <metadata>
    <name>15mars2014</name>
    <desc><![CDATA[club vtt des rochers]]></desc>
  </metadata>
  <trk>
    <name><![CDATA[15-MARS-14 17:11:44]]></name>
    <trkseg>
      <trkpt lat="44.472" lon="0.9343">
        <ele>69.35</ele>
        <time>2014-03-15T13:11:18Z</time>
      </trkpt>
      <trkpt lat="44.47195" lon="0.93427">
        <ele>72.72</ele>
        <time>2014-03-15T13:11:48Z</time>
      </trkpt>
      <trkpt lat="44.47196" lon="0.9343">
        <ele>73.2</ele>
        <time>2014-03-15T13:12:18Z</time>
      </trkpt>
      <trkpt lat="44.47196" lon="0.93429">
        <ele>74.16</ele>
        <time>2014-03-15T13:12:48Z</time>
      </trkpt>
      <trkpt lat="44.47196" lon="0.93429">
        <ele>74.64</ele>
        <time>2014-03-15T13:13:18Z</time>
      </trkpt>
      <trkpt lat="44.47198" lon="0.93428">
        <ele>74.64</ele>
        <time>2014-03-15T13:13:48Z</time>
      </trkpt>
      <trkpt lat="44.47196" lon="0.93426">
        <ele>71.76</ele>
        <time>2014-03-15T13:14:18Z</time>
      </trkpt>
      <trkpt lat="44.47196" lon="0.93425">
        <ele>73.68</ele>
        <time>2014-03-15T13:14:48Z</time>
      </trkpt>
      <trkpt lat="44.47163" lon="0.9347">
        <ele>71.76</ele>
        <time>2014-03-15T13:15:18Z</time>
      </trkpt>
      <trkpt lat="44.47085" lon="0.93476">
        <ele>70.31</ele>
        <time>2014-03-15T13:15:48Z</time>
      </trkpt>
      <trkpt lat="44.47059" lon="0.93503">
        <ele>69.83</ele>
        <time>2014-03-15T13:16:18Z</time>
      </trkpt>
      <trkpt lat="44.4693" lon="0.93583">
        <ele>70.31</ele>
        <time>2014-03-15T13:16:48Z</time>
      </trkpt>
      <trkpt lat="44.46808" lon="0.93541">
        <ele>70.31</ele>
        <time>2014-03-15T13:17:18Z</time>
      </trkpt>
      <trkpt lat="44.46854" lon="0.93617">
        <ele>75.6</ele>
        <time>2014-03-15T13:17:48Z</time>
      </trkpt>
      <trkpt lat="44.46854" lon="0.93656">
        <ele>77.04</ele>
        <time>2014-03-15T13:18:18Z</time>
      </trkpt>
      <trkpt lat="44.46807" lon="0.938">
        <ele>78.48</ele>
        <time>2014-03-15T13:18:48Z</time>
      </trkpt>
      <trkpt lat="44.46753" lon="0.93957">
        <ele>78.48</ele>
        <time>2014-03-15T13:19:18Z</time>
      </trkpt>
      <trkpt lat="44.46657" lon="0.94005">
        <ele>79.45</ele>
        <time>2014-03-15T13:19:48Z</time>
      </trkpt>
      <trkpt lat="44.46521" lon="0.94047">
        <ele>80.89</ele>
        <time>2014-03-15T13:20:18Z</time>
      </trkpt>
      <trkpt lat="44.46393" lon="0.94179">
        <ele>80.89</ele>
        <time>2014-03-15T13:20:48Z</time>
      </trkpt>
      <trkpt lat="44.46276" lon="0.94306">
        <ele>81.85</ele>
        <time>2014-03-15T13:21:18Z</time>
      </trkpt>
      <trkpt lat="44.46197" lon="0.94449">
        <ele>85.69</ele>
        <time>2014-03-15T13:21:48Z</time>
      </trkpt>
      <trkpt lat="44.46294" lon="0.94587">
        <ele>86.66</ele>
        <time>2014-03-15T13:22:18Z</time>
      </trkpt>
      <trkpt lat="44.46374" lon="0.94693">
        <ele>89.54</ele>
        <time>2014-03-15T13:22:48Z</time>
      </trkpt>
      <trkpt lat="44.46382" lon="0.94713">
        <ele>90.98</ele>
        <time>2014-03-15T13:23:18Z</time>
      </trkpt>
      <trkpt lat="44.46349" lon="0.94768">
        <ele>90.98</ele>
        <time>2014-03-15T13:23:48Z</time>
      </trkpt>
      <trkpt lat="44.46287" lon="0.94927">
        <ele>88.1</ele>
        <time>2014-03-15T13:24:18Z</time>
      </trkpt>
      <trkpt lat="44.46175" lon="0.9509">
        <ele>87.14</ele>
        <time>2014-03-15T13:24:48Z</time>
      </trkpt>
      <trkpt lat="44.46045" lon="0.95196">
        <ele>89.54</ele>
        <time>2014-03-15T13:25:18Z</time>
      </trkpt>
      <trkpt lat="44.45931" lon="0.95303">
        <ele>89.06</ele>
        <time>2014-03-15T13:25:48Z</time>
      </trkpt>
      <trkpt lat="44.45819" lon="0.95338">
        <ele>92.9</ele>
        <time>2014-03-15T13:26:18Z</time>
      </trkpt>
      <trkpt lat="44.45706" lon="0.95416">
        <ele>95.31</ele>
        <time>2014-03-15T13:26:48Z</time>
      </trkpt>
      <trkpt lat="44.45593" lon="0.95516">
        <ele>96.75</ele>
        <time>2014-03-15T13:27:18Z</time>
      </trkpt>
      <trkpt lat="44.45511" lon="0.95611">
        <ele>98.67</ele>
        <time>2014-03-15T13:27:48Z</time>
      </trkpt>
      <trkpt lat="44.45454" lon="0.95699">
        <ele>99.63</ele>
        <time>2014-03-15T13:28:18Z</time>
      </trkpt>
      <trkpt lat="44.45393" lon="0.95809">
        <ele>99.15</ele>
        <time>2014-03-15T13:28:48Z</time>
      </trkpt>
      <trkpt lat="44.45383" lon="0.95852">
        <ele>98.19</ele>
        <time>2014-03-15T13:29:18Z</time>
      </trkpt>
      <trkpt lat="44.45328" lon="0.9596">
        <ele>97.71</ele>
        <time>2014-03-15T13:29:48Z</time>
      </trkpt>
      <trkpt lat="44.45224" lon="0.96023">
        <ele>102.04</ele>
        <time>2014-03-15T13:30:18Z</time>
      </trkpt>
      <trkpt lat="44.45123" lon="0.96121">
        <ele>103.96</ele>
        <time>2014-03-15T13:30:48Z</time>
      </trkpt>
      <trkpt lat="44.45027" lon="0.96223">
        <ele>106.84</ele>
        <time>2014-03-15T13:31:18Z</time>
      </trkpt>
      <trkpt lat="44.44938" lon="0.96414">
        <ele>96.27</ele>
        <time>2014-03-15T13:31:48Z</time>
      </trkpt>
      <trkpt lat="44.45035" lon="0.96527">
        <ele>93.87</ele>
        <time>2014-03-15T13:32:18Z</time>
      </trkpt>
      <trkpt lat="44.4509" lon="0.96535">
        <ele>97.71</ele>
        <time>2014-03-15T13:32:48Z</time>
      </trkpt>
      <trkpt lat="44.45079" lon="0.9667">
        <ele>98.19</ele>
        <time>2014-03-15T13:33:18Z</time>
      </trkpt>
      <trkpt lat="44.45006" lon="0.96821">
        <ele>99.63</ele>
        <time>2014-03-15T13:33:48Z</time>
      </trkpt>
      <trkpt lat="44.44925" lon="0.9698">
        <ele>100.6</ele>
        <time>2014-03-15T13:34:18Z</time>
      </trkpt>
      <trkpt lat="44.44844" lon="0.97131">
        <ele>108.77</ele>
        <time>2014-03-15T13:34:48Z</time>
      </trkpt>
      <trkpt lat="44.44753" lon="0.97285">
        <ele>112.13</ele>
        <time>2014-03-15T13:35:18Z</time>
      </trkpt>
      <trkpt lat="44.44636" lon="0.97536">
        <ele>106.84</ele>
        <time>2014-03-15T13:35:48Z</time>
      </trkpt>
      <trkpt lat="44.44604" lon="0.97741">
        <ele>108.77</ele>
        <time>2014-03-15T13:36:18Z</time>
      </trkpt>
      <trkpt lat="44.44584" lon="0.97856">
        <ele>109.25</ele>
        <time>2014-03-15T13:36:48Z</time>
      </trkpt>
      <trkpt lat="44.44584" lon="0.97856">
        <ele>109.73</ele>
        <time>2014-03-15T13:37:18Z</time>
      </trkpt>
      <trkpt lat="44.44585" lon="0.97845">
        <ele>110.69</ele>
        <time>2014-03-15T13:37:48Z</time>
      </trkpt>
      <trkpt lat="44.44587" lon="0.97844">
        <ele>112.61</ele>
        <time>2014-03-15T13:38:18Z</time>
      </trkpt>
      <trkpt lat="44.44588" lon="0.97842">
        <ele>113.57</ele>
        <time>2014-03-15T13:38:48Z</time>
      </trkpt>
      <trkpt lat="44.44589" lon="0.97844">
        <ele>112.13</ele>
        <time>2014-03-15T13:39:18Z</time>
      </trkpt>
      <trkpt lat="44.44587" lon="0.97844">
        <ele>111.17</ele>
        <time>2014-03-15T13:39:48Z</time>
      </trkpt>
      <trkpt lat="44.44588" lon="0.97856">
        <ele>111.65</ele>
        <time>2014-03-15T13:40:18Z</time>
      </trkpt>
      <trkpt lat="44.44566" lon="0.97958">
        <ele>111.17</ele>
        <time>2014-03-15T13:40:48Z</time>
      </trkpt>
      <trkpt lat="44.44512" lon="0.98149">
        <ele>106.36</ele>
        <time>2014-03-15T13:41:18Z</time>
      </trkpt>
      <trkpt lat="44.44474" lon="0.98358">
        <ele>107.81</ele>
        <time>2014-03-15T13:41:48Z</time>
      </trkpt>
      <trkpt lat="44.4448" lon="0.98578">
        <ele>108.29</ele>
        <time>2014-03-15T13:42:18Z</time>
      </trkpt>
      <trkpt lat="44.44526" lon="0.9877">
        <ele>113.09</ele>
        <time>2014-03-15T13:42:48Z</time>
      </trkpt>
      <trkpt lat="44.44553" lon="0.98981">
        <ele>114.05</ele>
        <time>2014-03-15T13:43:18Z</time>
      </trkpt>
      <trkpt lat="44.44553" lon="0.99213">
        <ele>113.57</ele>
        <time>2014-03-15T13:43:48Z</time>
      </trkpt>
      <trkpt lat="44.44446" lon="0.99313">
        <ele>117.42</ele>
        <time>2014-03-15T13:44:18Z</time>
      </trkpt>
      <trkpt lat="44.44496" lon="0.99366">
        <ele>122.71</ele>
        <time>2014-03-15T13:44:48Z</time>
      </trkpt>
      <trkpt lat="44.44606" lon="0.99519">
        <ele>123.19</ele>
        <time>2014-03-15T13:45:18Z</time>
      </trkpt>
      <trkpt lat="44.44718" lon="0.99627">
        <ele>129.43</ele>
        <time>2014-03-15T13:45:48Z</time>
      </trkpt>
      <trkpt lat="44.44815" lon="0.99742">
        <ele>131.84</ele>
        <time>2014-03-15T13:46:18Z</time>
      </trkpt>
      <trkpt lat="44.44946" lon="0.99869">
        <ele>124.63</ele>
        <time>2014-03-15T13:46:48Z</time>
      </trkpt>
      <trkpt lat="44.44983" lon="0.99967">
        <ele>127.99</ele>
        <time>2014-03-15T13:47:18Z</time>
      </trkpt>
      <trkpt lat="44.4495" lon="1.00024">
        <ele>131.84</ele>
        <time>2014-03-15T13:47:48Z</time>
      </trkpt>
      <trkpt lat="44.44922" lon="1.0008">
        <ele>130.4</ele>
        <time>2014-03-15T13:48:18Z</time>
      </trkpt>
      <trkpt lat="44.44897" lon="1.00131">
        <ele>132.8</ele>
        <time>2014-03-15T13:48:48Z</time>
      </trkpt>
      <trkpt lat="44.44869" lon="1.00174">
        <ele>135.68</ele>
        <time>2014-03-15T13:49:18Z</time>
      </trkpt>
      <trkpt lat="44.44846" lon="1.0022">
        <ele>135.2</ele>
        <time>2014-03-15T13:49:48Z</time>
      </trkpt>
      <trkpt lat="44.44829" lon="1.00268">
        <ele>146.26</ele>
        <time>2014-03-15T13:50:18Z</time>
      </trkpt>
      <trkpt lat="44.44814" lon="1.00319">
        <ele>161.16</ele>
        <time>2014-03-15T13:50:48Z</time>
      </trkpt>
      <trkpt lat="44.44798" lon="1.00373">
        <ele>170.77</ele>
        <time>2014-03-15T13:51:18Z</time>
      </trkpt>
      <trkpt lat="44.44778" lon="1.00418">
        <ele>177.98</ele>
        <time>2014-03-15T13:51:48Z</time>
      </trkpt>
      <trkpt lat="44.44756" lon="1.00462">
        <ele>181.83</ele>
        <time>2014-03-15T13:52:18Z</time>
      </trkpt>
      <trkpt lat="44.44736" lon="1.00509">
        <ele>185.67</ele>
        <time>2014-03-15T13:52:48Z</time>
      </trkpt>
      <trkpt lat="44.44706" lon="1.00543">
        <ele>186.15</ele>
        <time>2014-03-15T13:53:18Z</time>
      </trkpt>
      <trkpt lat="44.44681" lon="1.00577">
        <ele>192.88</ele>
        <time>2014-03-15T13:53:48Z</time>
      </trkpt>
      <trkpt lat="44.44656" lon="1.00609">
        <ele>196.25</ele>
        <time>2014-03-15T13:54:18Z</time>
      </trkpt>
      <trkpt lat="44.44625" lon="1.00642">
        <ele>206.82</ele>
        <time>2014-03-15T13:54:48Z</time>
      </trkpt>
      <trkpt lat="44.4458" lon="1.00595">
        <ele>212.11</ele>
        <time>2014-03-15T13:55:18Z</time>
      </trkpt>
      <trkpt lat="44.44543" lon="1.00622">
        <ele>214.51</ele>
        <time>2014-03-15T13:55:48Z</time>
      </trkpt>
      <trkpt lat="44.4452" lon="1.00642">
        <ele>215.47</ele>
        <time>2014-03-15T13:56:18Z</time>
      </trkpt>
      <trkpt lat="44.4452" lon="1.00642">
        <ele>215.95</ele>
        <time>2014-03-15T13:56:48Z</time>
      </trkpt>
      <trkpt lat="44.44519" lon="1.00642">
        <ele>214.99</ele>
        <time>2014-03-15T13:57:18Z</time>
      </trkpt>
      <trkpt lat="44.4452" lon="1.00643">
        <ele>214.51</ele>
        <time>2014-03-15T13:57:48Z</time>
      </trkpt>
      <trkpt lat="44.44519" lon="1.00642">
        <ele>213.55</ele>
        <time>2014-03-15T13:58:18Z</time>
      </trkpt>
      <trkpt lat="44.44521" lon="1.00642">
        <ele>213.55</ele>
        <time>2014-03-15T13:58:48Z</time>
      </trkpt>
      <trkpt lat="44.4452" lon="1.00642">
        <ele>214.51</ele>
        <time>2014-03-15T13:59:18Z</time>
      </trkpt>
      <trkpt lat="44.44519" lon="1.00643">
        <ele>214.99</ele>
        <time>2014-03-15T13:59:48Z</time>
      </trkpt>
      <trkpt lat="44.4452" lon="1.00642">
        <ele>212.59</ele>
        <time>2014-03-15T14:00:18Z</time>
      </trkpt>
      <trkpt lat="44.44476" lon="1.00729">
        <ele>211.15</ele>
        <time>2014-03-15T14:00:48Z</time>
      </trkpt>
      <trkpt lat="44.44398" lon="1.00883">
        <ele>211.15</ele>
        <time>2014-03-15T14:01:18Z</time>
      </trkpt>
      <trkpt lat="44.44341" lon="1.00993">
        <ele>220.28</ele>
        <time>2014-03-15T14:01:48Z</time>
      </trkpt>
      <trkpt lat="44.44279" lon="1.01066">
        <ele>223.16</ele>
        <time>2014-03-15T14:02:18Z</time>
      </trkpt>
      <trkpt lat="44.44193" lon="1.01109">
        <ele>223.64</ele>
        <time>2014-03-15T14:02:48Z</time>
      </trkpt>
      <trkpt lat="44.44113" lon="1.01221">
        <ele>218.36</ele>
        <time>2014-03-15T14:03:18Z</time>
      </trkpt>
      <trkpt lat="44.44078" lon="1.01458">
        <ele>213.07</ele>
        <time>2014-03-15T14:03:48Z</time>
      </trkpt>
      <trkpt lat="44.44069" lon="1.01636">
        <ele>214.03</ele>
        <time>2014-03-15T14:04:18Z</time>
      </trkpt>
      <trkpt lat="44.44108" lon="1.01623">
        <ele>213.07</ele>
        <time>2014-03-15T14:04:48Z</time>
      </trkpt>
      <trkpt lat="44.44108" lon="1.01624">
        <ele>214.03</ele>
        <time>2014-03-15T14:05:18Z</time>
      </trkpt>
      <trkpt lat="44.44108" lon="1.01627">
        <ele>214.51</ele>
        <time>2014-03-15T14:05:48Z</time>
      </trkpt>
      <trkpt lat="44.44046" lon="1.01653">
        <ele>213.55</ele>
        <time>2014-03-15T14:06:18Z</time>
      </trkpt>
      <trkpt lat="44.43887" lon="1.01692">
        <ele>175.1</ele>
        <time>2014-03-15T14:06:48Z</time>
      </trkpt>
      <trkpt lat="44.4387" lon="1.01706">
        <ele>172.21</ele>
        <time>2014-03-15T14:07:18Z</time>
      </trkpt>
      <trkpt lat="44.43872" lon="1.01706">
        <ele>175.1</ele>
        <time>2014-03-15T14:07:48Z</time>
      </trkpt>
      <trkpt lat="44.4387" lon="1.0172">
        <ele>177.98</ele>
        <time>2014-03-15T14:08:18Z</time>
      </trkpt>
      <trkpt lat="44.43799" lon="1.01799">
        <ele>172.69</ele>
        <time>2014-03-15T14:08:48Z</time>
      </trkpt>
      <trkpt lat="44.4372" lon="1.0184">
        <ele>174.62</ele>
        <time>2014-03-15T14:09:18Z</time>
      </trkpt>
      <trkpt lat="44.43696" lon="1.01903">
        <ele>184.23</ele>
        <time>2014-03-15T14:09:48Z</time>
      </trkpt>
      <trkpt lat="44.43681" lon="1.01966">
        <ele>191.92</ele>
        <time>2014-03-15T14:10:18Z</time>
      </trkpt>
      <trkpt lat="44.43677" lon="1.01988">
        <ele>198.17</ele>
        <time>2014-03-15T14:10:48Z</time>
      </trkpt>
      <trkpt lat="44.43702" lon="1.01985">
        <ele>208.74</ele>
        <time>2014-03-15T14:11:18Z</time>
      </trkpt>
      <trkpt lat="44.43717" lon="1.01982">
        <ele>208.26</ele>
        <time>2014-03-15T14:11:48Z</time>
      </trkpt>
      <trkpt lat="44.43714" lon="1.02015">
        <ele>210.67</ele>
        <time>2014-03-15T14:12:18Z</time>
      </trkpt>
      <trkpt lat="44.43721" lon="1.02044">
        <ele>216.43</ele>
        <time>2014-03-15T14:12:48Z</time>
      </trkpt>
      <trkpt lat="44.43754" lon="1.02032">
        <ele>221.24</ele>
        <time>2014-03-15T14:13:18Z</time>
      </trkpt>
      <trkpt lat="44.43798" lon="1.02012">
        <ele>225.09</ele>
        <time>2014-03-15T14:13:48Z</time>
      </trkpt>
      <trkpt lat="44.4381" lon="1.02006">
        <ele>220.76</ele>
        <time>2014-03-15T14:14:18Z</time>
      </trkpt>
      <trkpt lat="44.43801" lon="1.02021">
        <ele>218.84</ele>
        <time>2014-03-15T14:14:48Z</time>
      </trkpt>
      <trkpt lat="44.43739" lon="1.02114">
        <ele>217.4</ele>
        <time>2014-03-15T14:15:18Z</time>
      </trkpt>
      <trkpt lat="44.4358" lon="1.02181">
        <ele>208.74</ele>
        <time>2014-03-15T14:15:48Z</time>
      </trkpt>
      <trkpt lat="44.43425" lon="1.02175">
        <ele>215.47</ele>
        <time>2014-03-15T14:16:18Z</time>
      </trkpt>
      <trkpt lat="44.43234" lon="1.02178">
        <ele>206.34</ele>
        <time>2014-03-15T14:16:48Z</time>
      </trkpt>
      <trkpt lat="44.43078" lon="1.02162">
        <ele>210.19</ele>
        <time>2014-03-15T14:17:18Z</time>
      </trkpt>
      <trkpt lat="44.42945" lon="1.02112">
        <ele>213.55</ele>
        <time>2014-03-15T14:17:48Z</time>
      </trkpt>
      <trkpt lat="44.42924" lon="1.02096">
        <ele>214.03</ele>
        <time>2014-03-15T14:18:18Z</time>
      </trkpt>
      <trkpt lat="44.42924" lon="1.02094">
        <ele>214.03</ele>
        <time>2014-03-15T14:18:48Z</time>
      </trkpt>
      <trkpt lat="44.4296" lon="1.01953">
        <ele>209.22</ele>
        <time>2014-03-15T14:19:18Z</time>
      </trkpt>
      <trkpt lat="44.43008" lon="1.01765">
        <ele>211.15</ele>
        <time>2014-03-15T14:19:48Z</time>
      </trkpt>
      <trkpt lat="44.42943" lon="1.01647">
        <ele>216.91</ele>
        <time>2014-03-15T14:20:18Z</time>
      </trkpt>
      <trkpt lat="44.42909" lon="1.01592">
        <ele>222.2</ele>
        <time>2014-03-15T14:20:48Z</time>
      </trkpt>
      <trkpt lat="44.42909" lon="1.01586">
        <ele>223.64</ele>
        <time>2014-03-15T14:21:18Z</time>
      </trkpt>
      <trkpt lat="44.4291" lon="1.01587">
        <ele>225.09</ele>
        <time>2014-03-15T14:21:48Z</time>
      </trkpt>
      <trkpt lat="44.4291" lon="1.01586">
        <ele>226.05</ele>
        <time>2014-03-15T14:22:18Z</time>
      </trkpt>
      <trkpt lat="44.4291" lon="1.01587">
        <ele>225.09</ele>
        <time>2014-03-15T14:22:48Z</time>
      </trkpt>
      <trkpt lat="44.42909" lon="1.01586">
        <ele>224.61</ele>
        <time>2014-03-15T14:23:18Z</time>
      </trkpt>
      <trkpt lat="44.42908" lon="1.01587">
        <ele>224.12</ele>
        <time>2014-03-15T14:23:48Z</time>
      </trkpt>
      <trkpt lat="44.42908" lon="1.01587">
        <ele>224.12</ele>
        <time>2014-03-15T14:24:18Z</time>
      </trkpt>
      <trkpt lat="44.42909" lon="1.01586">
        <ele>223.16</ele>
        <time>2014-03-15T14:24:48Z</time>
      </trkpt>
      <trkpt lat="44.4291" lon="1.01584">
        <ele>222.68</ele>
        <time>2014-03-15T14:25:18Z</time>
      </trkpt>
      <trkpt lat="44.42907" lon="1.01585">
        <ele>225.09</ele>
        <time>2014-03-15T14:25:48Z</time>
      </trkpt>
      <trkpt lat="44.42909" lon="1.01586">
        <ele>224.12</ele>
        <time>2014-03-15T14:26:18Z</time>
      </trkpt>
      <trkpt lat="44.42909" lon="1.01586">
        <ele>222.2</ele>
        <time>2014-03-15T14:26:48Z</time>
      </trkpt>
      <trkpt lat="44.42909" lon="1.01585">
        <ele>222.2</ele>
        <time>2014-03-15T14:27:18Z</time>
      </trkpt>
      <trkpt lat="44.42909" lon="1.01586">
        <ele>222.68</ele>
        <time>2014-03-15T14:27:48Z</time>
      </trkpt>
      <trkpt lat="44.42909" lon="1.01586">
        <ele>224.12</ele>
        <time>2014-03-15T14:28:18Z</time>
      </trkpt>
      <trkpt lat="44.42908" lon="1.01586">
        <ele>224.12</ele>
        <time>2014-03-15T14:28:48Z</time>
      </trkpt>
      <trkpt lat="44.42909" lon="1.01585">
        <ele>222.2</ele>
        <time>2014-03-15T14:29:18Z</time>
      </trkpt>
      <trkpt lat="44.42909" lon="1.01585">
        <ele>222.68</ele>
        <time>2014-03-15T14:29:48Z</time>
      </trkpt>
      <trkpt lat="44.42908" lon="1.01585">
        <ele>222.2</ele>
        <time>2014-03-15T14:30:18Z</time>
      </trkpt>
      <trkpt lat="44.42909" lon="1.01585">
        <ele>224.12</ele>
        <time>2014-03-15T14:30:48Z</time>
      </trkpt>
      <trkpt lat="44.42909" lon="1.01585">
        <ele>226.05</ele>
        <time>2014-03-15T14:31:18Z</time>
      </trkpt>
      <trkpt lat="44.42908" lon="1.01587">
        <ele>224.61</ele>
        <time>2014-03-15T14:31:48Z</time>
      </trkpt>
      <trkpt lat="44.42909" lon="1.01586">
        <ele>225.09</ele>
        <time>2014-03-15T14:32:18Z</time>
      </trkpt>
      <trkpt lat="44.42909" lon="1.01586">
        <ele>226.53</ele>
        <time>2014-03-15T14:32:48Z</time>
      </trkpt>
      <trkpt lat="44.42907" lon="1.01576">
        <ele>227.49</ele>
        <time>2014-03-15T14:33:18Z</time>
      </trkpt>
      <trkpt lat="44.42932" lon="1.01489">
        <ele>228.93</ele>
        <time>2014-03-15T14:33:48Z</time>
      </trkpt>
      <trkpt lat="44.4295" lon="1.01358">
        <ele>232.78</ele>
        <time>2014-03-15T14:34:18Z</time>
      </trkpt>
      <trkpt lat="44.42879" lon="1.01179">
        <ele>225.09</ele>
        <time>2014-03-15T14:34:48Z</time>
      </trkpt>
      <trkpt lat="44.42844" lon="1.00952">
        <ele>213.55</ele>
        <time>2014-03-15T14:35:18Z</time>
      </trkpt>
      <trkpt lat="44.43007" lon="1.00944">
        <ele>209.22</ele>
        <time>2014-03-15T14:35:48Z</time>
      </trkpt>
      <trkpt lat="44.43116" lon="1.00845">
        <ele>215.47</ele>
        <time>2014-03-15T14:36:18Z</time>
      </trkpt>
      <trkpt lat="44.43204" lon="1.00818">
        <ele>217.4</ele>
        <time>2014-03-15T14:36:48Z</time>
      </trkpt>
      <trkpt lat="44.43238" lon="1.0081">
        <ele>216.91</ele>
        <time>2014-03-15T14:37:18Z</time>
      </trkpt>
      <trkpt lat="44.43239" lon="1.0081">
        <ele>214.03</ele>
        <time>2014-03-15T14:37:48Z</time>
      </trkpt>
      <trkpt lat="44.4324" lon="1.00812">
        <ele>215.95</ele>
        <time>2014-03-15T14:38:18Z</time>
      </trkpt>
      <trkpt lat="44.43251" lon="1.00803">
        <ele>216.91</ele>
        <time>2014-03-15T14:38:48Z</time>
      </trkpt>
      <trkpt lat="44.43378" lon="1.00667">
        <ele>212.11</ele>
        <time>2014-03-15T14:39:18Z</time>
      </trkpt>
      <trkpt lat="44.4352" lon="1.00442">
        <ele>201.53</ele>
        <time>2014-03-15T14:39:48Z</time>
      </trkpt>
      <trkpt lat="44.43554" lon="1.00294">
        <ele>172.69</ele>
        <time>2014-03-15T14:40:18Z</time>
      </trkpt>
      <trkpt lat="44.43696" lon="1.00184">
        <ele>141.93</ele>
        <time>2014-03-15T14:40:48Z</time>
      </trkpt>
      <trkpt lat="44.43726" lon="1.0017">
        <ele>137.61</ele>
        <time>2014-03-15T14:41:18Z</time>
      </trkpt>
      <trkpt lat="44.43727" lon="1.0017">
        <ele>137.61</ele>
        <time>2014-03-15T14:41:48Z</time>
      </trkpt>
      <trkpt lat="44.43727" lon="1.00169">
        <ele>136.64</ele>
        <time>2014-03-15T14:42:18Z</time>
      </trkpt>
      <trkpt lat="44.43739" lon="1.0017">
        <ele>134.24</ele>
        <time>2014-03-15T14:42:48Z</time>
      </trkpt>
      <trkpt lat="44.43753" lon="1.00186">
        <ele>134.72</ele>
        <time>2014-03-15T14:43:18Z</time>
      </trkpt>
      <trkpt lat="44.43753" lon="1.00186">
        <ele>137.61</ele>
        <time>2014-03-15T14:43:48Z</time>
      </trkpt>
      <trkpt lat="44.43714" lon="1.00277">
        <ele>142.41</ele>
        <time>2014-03-15T14:44:18Z</time>
      </trkpt>
      <trkpt lat="44.43688" lon="1.0042">
        <ele>147.7</ele>
        <time>2014-03-15T14:44:48Z</time>
      </trkpt>
      <trkpt lat="44.43728" lon="1.00547">
        <ele>147.7</ele>
        <time>2014-03-15T14:45:18Z</time>
      </trkpt>
      <trkpt lat="44.43753" lon="1.00594">
        <ele>161.16</ele>
        <time>2014-03-15T14:45:48Z</time>
      </trkpt>
      <trkpt lat="44.43747" lon="1.00715">
        <ele>164.04</ele>
        <time>2014-03-15T14:46:18Z</time>
      </trkpt>
      <trkpt lat="44.43762" lon="1.00841">
        <ele>160.2</ele>
        <time>2014-03-15T14:46:48Z</time>
      </trkpt>
      <trkpt lat="44.43785" lon="1.00875">
        <ele>163.56</ele>
        <time>2014-03-15T14:47:18Z</time>
      </trkpt>
      <trkpt lat="44.43801" lon="1.00899">
        <ele>163.08</ele>
        <time>2014-03-15T14:47:48Z</time>
      </trkpt>
      <trkpt lat="44.43809" lon="1.00897">
        <ele>165.48</ele>
        <time>2014-03-15T14:48:18Z</time>
      </trkpt>
      <trkpt lat="44.43802" lon="1.00836">
        <ele>169.33</ele>
        <time>2014-03-15T14:48:48Z</time>
      </trkpt>
      <trkpt lat="44.43809" lon="1.00782">
        <ele>173.66</ele>
        <time>2014-03-15T14:49:18Z</time>
      </trkpt>
      <trkpt lat="44.43824" lon="1.00807">
        <ele>178.94</ele>
        <time>2014-03-15T14:49:48Z</time>
      </trkpt>
      <trkpt lat="44.43828" lon="1.00755">
        <ele>182.31</ele>
        <time>2014-03-15T14:50:18Z</time>
      </trkpt>
      <trkpt lat="44.43837" lon="1.00702">
        <ele>185.67</ele>
        <time>2014-03-15T14:50:48Z</time>
      </trkpt>
      <trkpt lat="44.43843" lon="1.00644">
        <ele>190.48</ele>
        <time>2014-03-15T14:51:18Z</time>
      </trkpt>
      <trkpt lat="44.43842" lon="1.00588">
        <ele>195.77</ele>
        <time>2014-03-15T14:51:48Z</time>
      </trkpt>
      <trkpt lat="44.43845" lon="1.00543">
        <ele>199.61</ele>
        <time>2014-03-15T14:52:18Z</time>
      </trkpt>
      <trkpt lat="44.43848" lon="1.00537">
        <ele>201.53</ele>
        <time>2014-03-15T14:52:48Z</time>
      </trkpt>
      <trkpt lat="44.43851" lon="1.00534">
        <ele>202.01</ele>
        <time>2014-03-15T14:53:18Z</time>
      </trkpt>
      <trkpt lat="44.43851" lon="1.00534">
        <ele>202.01</ele>
        <time>2014-03-15T14:53:48Z</time>
      </trkpt>
      <trkpt lat="44.43849" lon="1.00532">
        <ele>202.01</ele>
        <time>2014-03-15T14:54:18Z</time>
      </trkpt>
      <trkpt lat="44.43853" lon="1.00528">
        <ele>203.94</ele>
        <time>2014-03-15T14:54:48Z</time>
      </trkpt>
      <trkpt lat="44.4387" lon="1.00506">
        <ele>205.86</ele>
        <time>2014-03-15T14:55:18Z</time>
      </trkpt>
      <trkpt lat="44.43871" lon="1.00508">
        <ele>206.34</ele>
        <time>2014-03-15T14:55:48Z</time>
      </trkpt>
      <trkpt lat="44.43871" lon="1.00505">
        <ele>207.78</ele>
        <time>2014-03-15T14:56:18Z</time>
      </trkpt>
      <trkpt lat="44.43868" lon="1.00504">
        <ele>208.74</ele>
        <time>2014-03-15T14:56:48Z</time>
      </trkpt>
      <trkpt lat="44.4387" lon="1.00506">
        <ele>208.74</ele>
        <time>2014-03-15T14:57:18Z</time>
      </trkpt>
      <trkpt lat="44.43871" lon="1.00505">
        <ele>206.82</ele>
        <time>2014-03-15T14:57:48Z</time>
      </trkpt>
      <trkpt lat="44.43854" lon="1.00433">
        <ele>200.09</ele>
        <time>2014-03-15T14:58:18Z</time>
      </trkpt>
      <trkpt lat="44.43867" lon="1.00096">
        <ele>154.91</ele>
        <time>2014-03-15T14:58:48Z</time>
      </trkpt>
      <trkpt lat="44.43894" lon="1.00015">
        <ele>140.01</ele>
        <time>2014-03-15T14:59:18Z</time>
      </trkpt>
      <trkpt lat="44.43894" lon="1.00033">
        <ele>141.93</ele>
        <time>2014-03-15T14:59:48Z</time>
      </trkpt>
      <trkpt lat="44.43917" lon="1.00138">
        <ele>137.13</ele>
        <time>2014-03-15T15:00:18Z</time>
      </trkpt>
      <trkpt lat="44.43946" lon="1.00222">
        <ele>137.61</ele>
        <time>2014-03-15T15:00:48Z</time>
      </trkpt>
      <trkpt lat="44.43978" lon="1.0029">
        <ele>143.37</ele>
        <time>2014-03-15T15:01:18Z</time>
      </trkpt>
      <trkpt lat="44.44029" lon="1.00351">
        <ele>148.18</ele>
        <time>2014-03-15T15:01:48Z</time>
      </trkpt>
      <trkpt lat="44.44085" lon="1.00385">
        <ele>147.7</ele>
        <time>2014-03-15T15:02:18Z</time>
      </trkpt>
      <trkpt lat="44.44143" lon="1.00385">
        <ele>152.03</ele>
        <time>2014-03-15T15:02:48Z</time>
      </trkpt>
      <trkpt lat="44.44196" lon="1.00402">
        <ele>164.04</ele>
        <time>2014-03-15T15:03:18Z</time>
      </trkpt>
      <trkpt lat="44.44251" lon="1.00433">
        <ele>167.41</ele>
        <time>2014-03-15T15:03:48Z</time>
      </trkpt>
      <trkpt lat="44.44296" lon="1.00465">
        <ele>177.02</ele>
        <time>2014-03-15T15:04:18Z</time>
      </trkpt>
      <trkpt lat="44.44325" lon="1.00519">
        <ele>182.31</ele>
        <time>2014-03-15T15:04:48Z</time>
      </trkpt>
      <trkpt lat="44.4433" lon="1.00593">
        <ele>184.23</ele>
        <time>2014-03-15T15:05:18Z</time>
      </trkpt>
      <trkpt lat="44.44296" lon="1.00569">
        <ele>185.67</ele>
        <time>2014-03-15T15:05:48Z</time>
      </trkpt>
      <trkpt lat="44.4429" lon="1.00569">
        <ele>183.75</ele>
        <time>2014-03-15T15:06:18Z</time>
      </trkpt>
      <trkpt lat="44.44291" lon="1.00568">
        <ele>183.27</ele>
        <time>2014-03-15T15:06:48Z</time>
      </trkpt>
      <trkpt lat="44.44292" lon="1.00567">
        <ele>184.23</ele>
        <time>2014-03-15T15:07:18Z</time>
      </trkpt>
      <trkpt lat="44.44292" lon="1.00568">
        <ele>184.71</ele>
        <time>2014-03-15T15:07:48Z</time>
      </trkpt>
      <trkpt lat="44.44289" lon="1.00569">
        <ele>183.75</ele>
        <time>2014-03-15T15:08:18Z</time>
      </trkpt>
      <trkpt lat="44.44291" lon="1.00565">
        <ele>185.19</ele>
        <time>2014-03-15T15:08:48Z</time>
      </trkpt>
      <trkpt lat="44.44292" lon="1.00562">
        <ele>184.23</ele>
        <time>2014-03-15T15:09:18Z</time>
      </trkpt>
      <trkpt lat="44.44273" lon="1.00572">
        <ele>185.67</ele>
        <time>2014-03-15T15:09:48Z</time>
      </trkpt>
      <trkpt lat="44.44248" lon="1.00628">
        <ele>191.44</ele>
        <time>2014-03-15T15:10:18Z</time>
      </trkpt>
      <trkpt lat="44.44248" lon="1.00685">
        <ele>196.73</ele>
        <time>2014-03-15T15:10:48Z</time>
      </trkpt>
      <trkpt lat="44.44269" lon="1.00724">
        <ele>202.01</ele>
        <time>2014-03-15T15:11:18Z</time>
      </trkpt>
      <trkpt lat="44.44267" lon="1.00779">
        <ele>205.38</ele>
        <time>2014-03-15T15:11:48Z</time>
      </trkpt>
      <trkpt lat="44.4429" lon="1.0081">
        <ele>209.7</ele>
        <time>2014-03-15T15:12:18Z</time>
      </trkpt>
      <trkpt lat="44.44344" lon="1.00829">
        <ele>214.51</ele>
        <time>2014-03-15T15:12:48Z</time>
      </trkpt>
      <trkpt lat="44.44379" lon="1.00874">
        <ele>216.43</ele>
        <time>2014-03-15T15:13:18Z</time>
      </trkpt>
      <trkpt lat="44.44379" lon="1.009">
        <ele>220.28</ele>
        <time>2014-03-15T15:13:48Z</time>
      </trkpt>
      <trkpt lat="44.44381" lon="1.00897">
        <ele>219.32</ele>
        <time>2014-03-15T15:14:18Z</time>
      </trkpt>
      <trkpt lat="44.44374" lon="1.00918">
        <ele>219.8</ele>
        <time>2014-03-15T15:14:48Z</time>
      </trkpt>
      <trkpt lat="44.44343" lon="1.00994">
        <ele>223.16</ele>
        <time>2014-03-15T15:15:18Z</time>
      </trkpt>
      <trkpt lat="44.44351" lon="1.01047">
        <ele>226.53</ele>
        <time>2014-03-15T15:15:48Z</time>
      </trkpt>
      <trkpt lat="44.44428" lon="1.01115">
        <ele>228.93</ele>
        <time>2014-03-15T15:16:18Z</time>
      </trkpt>
      <trkpt lat="44.44498" lon="1.01182">
        <ele>222.68</ele>
        <time>2014-03-15T15:16:48Z</time>
      </trkpt>
      <trkpt lat="44.44649" lon="1.01076">
        <ele>218.84</ele>
        <time>2014-03-15T15:17:18Z</time>
      </trkpt>
      <trkpt lat="44.44817" lon="1.01017">
        <ele>208.26</ele>
        <time>2014-03-15T15:17:48Z</time>
      </trkpt>
      <trkpt lat="44.44912" lon="1.00872">
        <ele>184.71</ele>
        <time>2014-03-15T15:18:18Z</time>
      </trkpt>
      <trkpt lat="44.44983" lon="1.00818">
        <ele>189.52</ele>
        <time>2014-03-15T15:18:48Z</time>
      </trkpt>
      <trkpt lat="44.45017" lon="1.00807">
        <ele>189.52</ele>
        <time>2014-03-15T15:19:18Z</time>
      </trkpt>
      <trkpt lat="44.45018" lon="1.00808">
        <ele>189.52</ele>
        <time>2014-03-15T15:19:48Z</time>
      </trkpt>
      <trkpt lat="44.45018" lon="1.00808">
        <ele>189.04</ele>
        <time>2014-03-15T15:20:18Z</time>
      </trkpt>
      <trkpt lat="44.45066" lon="1.00744">
        <ele>182.31</ele>
        <time>2014-03-15T15:20:48Z</time>
      </trkpt>
      <trkpt lat="44.45166" lon="1.00606">
        <ele>146.26</ele>
        <time>2014-03-15T15:21:18Z</time>
      </trkpt>
      <trkpt lat="44.45272" lon="1.00593">
        <ele>136.64</ele>
        <time>2014-03-15T15:21:48Z</time>
      </trkpt>
      <trkpt lat="44.45271" lon="1.00593">
        <ele>137.61</ele>
        <time>2014-03-15T15:22:18Z</time>
      </trkpt>
      <trkpt lat="44.4527" lon="1.00594">
        <ele>137.13</ele>
        <time>2014-03-15T15:22:48Z</time>
      </trkpt>
      <trkpt lat="44.45271" lon="1.00593">
        <ele>137.13</ele>
        <time>2014-03-15T15:23:18Z</time>
      </trkpt>
      <trkpt lat="44.45297" lon="1.00601">
        <ele>137.61</ele>
        <time>2014-03-15T15:23:48Z</time>
      </trkpt>
      <trkpt lat="44.45376" lon="1.00548">
        <ele>142.89</ele>
        <time>2014-03-15T15:24:18Z</time>
      </trkpt>
      <trkpt lat="44.45448" lon="1.00484">
        <ele>147.22</ele>
        <time>2014-03-15T15:24:48Z</time>
      </trkpt>
      <trkpt lat="44.45519" lon="1.00436">
        <ele>151.54</ele>
        <time>2014-03-15T15:25:18Z</time>
      </trkpt>
      <trkpt lat="44.45592" lon="1.00408">
        <ele>154.91</ele>
        <time>2014-03-15T15:25:48Z</time>
      </trkpt>
      <trkpt lat="44.45659" lon="1.00382">
        <ele>156.83</ele>
        <time>2014-03-15T15:26:18Z</time>
      </trkpt>
      <trkpt lat="44.45723" lon="1.00327">
        <ele>159.72</ele>
        <time>2014-03-15T15:26:48Z</time>
      </trkpt>
      <trkpt lat="44.45793" lon="1.00283">
        <ele>163.56</ele>
        <time>2014-03-15T15:27:18Z</time>
      </trkpt>
      <trkpt lat="44.45876" lon="1.00242">
        <ele>164.04</ele>
        <time>2014-03-15T15:27:48Z</time>
      </trkpt>
      <trkpt lat="44.45959" lon="1.0022">
        <ele>170.29</ele>
        <time>2014-03-15T15:28:18Z</time>
      </trkpt>
      <trkpt lat="44.46042" lon="1.00236">
        <ele>173.66</ele>
        <time>2014-03-15T15:28:48Z</time>
      </trkpt>
      <trkpt lat="44.46124" lon="1.00231">
        <ele>177.98</ele>
        <time>2014-03-15T15:29:18Z</time>
      </trkpt>
      <trkpt lat="44.46202" lon="1.00231">
        <ele>183.75</ele>
        <time>2014-03-15T15:29:48Z</time>
      </trkpt>
      <trkpt lat="44.46274" lon="1.00213">
        <ele>183.27</ele>
        <time>2014-03-15T15:30:18Z</time>
      </trkpt>
      <trkpt lat="44.46312" lon="1.00153">
        <ele>187.11</ele>
        <time>2014-03-15T15:30:48Z</time>
      </trkpt>
      <trkpt lat="44.46357" lon="1.00105">
        <ele>188.08</ele>
        <time>2014-03-15T15:31:18Z</time>
      </trkpt>
      <trkpt lat="44.46383" lon="1.00088">
        <ele>196.25</ele>
        <time>2014-03-15T15:31:48Z</time>
      </trkpt>
      <trkpt lat="44.46382" lon="1.00087">
        <ele>197.69</ele>
        <time>2014-03-15T15:32:18Z</time>
      </trkpt>
      <trkpt lat="44.46384" lon="1.00086">
        <ele>198.17</ele>
        <time>2014-03-15T15:32:48Z</time>
      </trkpt>
      <trkpt lat="44.46357" lon="1.00049">
        <ele>196.73</ele>
        <time>2014-03-15T15:33:18Z</time>
      </trkpt>
      <trkpt lat="44.46318" lon="0.99929">
        <ele>201.53</ele>
        <time>2014-03-15T15:33:48Z</time>
      </trkpt>
      <trkpt lat="44.46289" lon="0.99807">
        <ele>203.94</ele>
        <time>2014-03-15T15:34:18Z</time>
      </trkpt>
      <trkpt lat="44.4636" lon="0.99683">
        <ele>195.28</ele>
        <time>2014-03-15T15:34:48Z</time>
      </trkpt>
      <trkpt lat="44.46403" lon="0.99719">
        <ele>185.67</ele>
        <time>2014-03-15T15:35:18Z</time>
      </trkpt>
      <trkpt lat="44.46465" lon="0.99773">
        <ele>169.33</ele>
        <time>2014-03-15T15:35:48Z</time>
      </trkpt>
      <trkpt lat="44.46524" lon="0.99614">
        <ele>153.47</ele>
        <time>2014-03-15T15:36:18Z</time>
      </trkpt>
      <trkpt lat="44.46632" lon="0.9965">
        <ele>147.22</ele>
        <time>2014-03-15T15:36:48Z</time>
      </trkpt>
      <trkpt lat="44.46679" lon="0.99668">
        <ele>141.93</ele>
        <time>2014-03-15T15:37:18Z</time>
      </trkpt>
      <trkpt lat="44.46678" lon="0.99667">
        <ele>142.41</ele>
        <time>2014-03-15T15:37:48Z</time>
      </trkpt>
      <trkpt lat="44.46728" lon="0.99608">
        <ele>140.49</ele>
        <time>2014-03-15T15:38:18Z</time>
      </trkpt>
      <trkpt lat="44.46739" lon="0.99599">
        <ele>141.45</ele>
        <time>2014-03-15T15:38:48Z</time>
      </trkpt>
      <trkpt lat="44.46738" lon="0.99599">
        <ele>141.45</ele>
        <time>2014-03-15T15:39:18Z</time>
      </trkpt>
      <trkpt lat="44.46738" lon="0.99599">
        <ele>141.45</ele>
        <time>2014-03-15T15:39:48Z</time>
      </trkpt>
      <trkpt lat="44.46747" lon="0.99594">
        <ele>140.97</ele>
        <time>2014-03-15T15:40:18Z</time>
      </trkpt>
      <trkpt lat="44.46857" lon="0.99594">
        <ele>135.68</ele>
        <time>2014-03-15T15:40:48Z</time>
      </trkpt>
      <trkpt lat="44.46935" lon="0.99592">
        <ele>127.99</ele>
        <time>2014-03-15T15:41:18Z</time>
      </trkpt>
      <trkpt lat="44.46976" lon="0.99423">
        <ele>121.26</ele>
        <time>2014-03-15T15:41:48Z</time>
      </trkpt>
      <trkpt lat="44.46977" lon="0.99198">
        <ele>114.05</ele>
        <time>2014-03-15T15:42:18Z</time>
      </trkpt>
      <trkpt lat="44.46959" lon="0.99063">
        <ele>120.3</ele>
        <time>2014-03-15T15:42:48Z</time>
      </trkpt>
      <trkpt lat="44.46941" lon="0.98917">
        <ele>124.15</ele>
        <time>2014-03-15T15:43:18Z</time>
      </trkpt>
      <trkpt lat="44.46906" lon="0.98806">
        <ele>134.24</ele>
        <time>2014-03-15T15:43:48Z</time>
      </trkpt>
      <trkpt lat="44.46883" lon="0.98727">
        <ele>139.53</ele>
        <time>2014-03-15T15:44:18Z</time>
      </trkpt>
      <trkpt lat="44.46861" lon="0.98645">
        <ele>142.41</ele>
        <time>2014-03-15T15:44:48Z</time>
      </trkpt>
      <trkpt lat="44.4685" lon="0.98577">
        <ele>142.41</ele>
        <time>2014-03-15T15:45:18Z</time>
      </trkpt>
      <trkpt lat="44.46862" lon="0.98463">
        <ele>131.36</ele>
        <time>2014-03-15T15:45:48Z</time>
      </trkpt>
      <trkpt lat="44.46863" lon="0.98432">
        <ele>125.11</ele>
        <time>2014-03-15T15:46:18Z</time>
      </trkpt>
      <trkpt lat="44.46864" lon="0.98431">
        <ele>125.59</ele>
        <time>2014-03-15T15:46:48Z</time>
      </trkpt>
      <trkpt lat="44.46864" lon="0.98431">
        <ele>127.03</ele>
        <time>2014-03-15T15:47:18Z</time>
      </trkpt>
      <trkpt lat="44.46849" lon="0.9841">
        <ele>128.47</ele>
        <time>2014-03-15T15:47:48Z</time>
      </trkpt>
      <trkpt lat="44.46804" lon="0.98355">
        <ele>133.76</ele>
        <time>2014-03-15T15:48:18Z</time>
      </trkpt>
      <trkpt lat="44.46793" lon="0.9815">
        <ele>127.03</ele>
        <time>2014-03-15T15:48:48Z</time>
      </trkpt>
      <trkpt lat="44.4695" lon="0.97957">
        <ele>112.61</ele>
        <time>2014-03-15T15:49:18Z</time>
      </trkpt>
      <trkpt lat="44.46914" lon="0.97771">
        <ele>111.65</ele>
        <time>2014-03-15T15:49:48Z</time>
      </trkpt>
      <trkpt lat="44.47019" lon="0.97667">
        <ele>107.81</ele>
        <time>2014-03-15T15:50:18Z</time>
      </trkpt>
      <trkpt lat="44.47045" lon="0.97555">
        <ele>105.88</ele>
        <time>2014-03-15T15:50:48Z</time>
      </trkpt>
      <trkpt lat="44.46982" lon="0.97323">
        <ele>98.67</ele>
        <time>2014-03-15T15:51:18Z</time>
      </trkpt>
      <trkpt lat="44.46907" lon="0.97125">
        <ele>101.08</ele>
        <time>2014-03-15T15:51:48Z</time>
      </trkpt>
      <trkpt lat="44.46844" lon="0.96966">
        <ele>104.44</ele>
        <time>2014-03-15T15:52:18Z</time>
      </trkpt>
      <trkpt lat="44.46798" lon="0.96851">
        <ele>110.21</ele>
        <time>2014-03-15T15:52:48Z</time>
      </trkpt>
      <trkpt lat="44.46762" lon="0.9675">
        <ele>116.46</ele>
        <time>2014-03-15T15:53:18Z</time>
      </trkpt>
      <trkpt lat="44.4672" lon="0.96611">
        <ele>115.98</ele>
        <time>2014-03-15T15:53:48Z</time>
      </trkpt>
      <trkpt lat="44.46661" lon="0.96434">
        <ele>117.42</ele>
        <time>2014-03-15T15:54:18Z</time>
      </trkpt>
      <trkpt lat="44.4664" lon="0.96381">
        <ele>116.94</ele>
        <time>2014-03-15T15:54:48Z</time>
      </trkpt>
      <trkpt lat="44.46611" lon="0.96267">
        <ele>115.01</ele>
        <time>2014-03-15T15:55:18Z</time>
      </trkpt>
      <trkpt lat="44.46569" lon="0.96182">
        <ele>113.09</ele>
        <time>2014-03-15T15:55:48Z</time>
      </trkpt>
      <trkpt lat="44.46496" lon="0.96064">
        <ele>114.53</ele>
        <time>2014-03-15T15:56:18Z</time>
      </trkpt>
      <trkpt lat="44.46554" lon="0.95943">
        <ele>111.65</ele>
        <time>2014-03-15T15:56:48Z</time>
      </trkpt>
      <trkpt lat="44.46617" lon="0.95803">
        <ele>110.21</ele>
        <time>2014-03-15T15:57:18Z</time>
      </trkpt>
      <trkpt lat="44.46674" lon="0.95682">
        <ele>106.36</ele>
        <time>2014-03-15T15:57:48Z</time>
      </trkpt>
      <trkpt lat="44.46773" lon="0.95604">
        <ele>103</ele>
        <time>2014-03-15T15:58:18Z</time>
      </trkpt>
      <trkpt lat="44.46772" lon="0.95477">
        <ele>103.48</ele>
        <time>2014-03-15T15:58:48Z</time>
      </trkpt>
      <trkpt lat="44.46741" lon="0.9529">
        <ele>101.56</ele>
        <time>2014-03-15T15:59:18Z</time>
      </trkpt>
      <trkpt lat="44.46738" lon="0.95091">
        <ele>92.42</ele>
        <time>2014-03-15T15:59:48Z</time>
      </trkpt>
      <trkpt lat="44.46722" lon="0.95041">
        <ele>90.98</ele>
        <time>2014-03-15T16:00:18Z</time>
      </trkpt>
      <trkpt lat="44.46711" lon="0.95044">
        <ele>88.1</ele>
        <time>2014-03-15T16:00:48Z</time>
      </trkpt>
      <trkpt lat="44.46839" lon="0.94973">
        <ele>85.21</ele>
        <time>2014-03-15T16:01:18Z</time>
      </trkpt>
      <trkpt lat="44.4693" lon="0.94746">
        <ele>78</ele>
        <time>2014-03-15T16:01:48Z</time>
      </trkpt>
      <trkpt lat="44.47037" lon="0.94514">
        <ele>77.04</ele>
        <time>2014-03-15T16:02:18Z</time>
      </trkpt>
      <trkpt lat="44.47176" lon="0.94381">
        <ele>77.04</ele>
        <time>2014-03-15T16:02:48Z</time>
      </trkpt>
      <trkpt lat="44.47321" lon="0.94263">
        <ele>74.16</ele>
        <time>2014-03-15T16:03:18Z</time>
      </trkpt>
      <trkpt lat="44.47438" lon="0.94191">
        <ele>68.87</ele>
        <time>2014-03-15T16:03:48Z</time>
      </trkpt>
      <trkpt lat="44.4741" lon="0.94079">
        <ele>67.43</ele>
        <time>2014-03-15T16:04:18Z</time>
      </trkpt>
      <trkpt lat="44.47427" lon="0.93937">
        <ele>68.87</ele>
        <time>2014-03-15T16:04:48Z</time>
      </trkpt>
      <trkpt lat="44.4738" lon="0.93894">
        <ele>74.16</ele>
        <time>2014-03-15T16:05:18Z</time>
      </trkpt>
      <trkpt lat="44.47325" lon="0.93747">
        <ele>73.2</ele>
        <time>2014-03-15T16:05:48Z</time>
      </trkpt>
      <trkpt lat="44.47249" lon="0.93621">
        <ele>74.16</ele>
        <time>2014-03-15T16:06:18Z</time>
      </trkpt>
      <trkpt lat="44.47225" lon="0.93562">
        <ele>75.6</ele>
        <time>2014-03-15T16:06:48Z</time>
      </trkpt>
      <trkpt lat="44.47224" lon="0.93511">
        <ele>74.64</ele>
        <time>2014-03-15T16:07:18Z</time>
      </trkpt>
      <trkpt lat="44.47205" lon="0.93426">
        <ele>72.24</ele>
        <time>2014-03-15T16:07:48Z</time>
      </trkpt>
      <trkpt lat="44.47204" lon="0.93425">
        <ele>72.24</ele>
        <time>2014-03-15T16:08:18Z</time>
      </trkpt>
      <trkpt lat="44.47205" lon="0.93425">
        <ele>70.31</ele>
        <time>2014-03-15T16:08:48Z</time>
      </trkpt>
      <trkpt lat="44.47204" lon="0.93427">
        <ele>73.2</ele>
        <time>2014-03-15T16:09:18Z</time>
      </trkpt>
      <trkpt lat="44.47205" lon="0.93427">
        <ele>75.6</ele>
        <time>2014-03-15T16:09:48Z</time>
      </trkpt>
      <trkpt lat="44.47205" lon="0.93426">
        <ele>78.48</ele>
        <time>2014-03-15T16:10:18Z</time>
      </trkpt>
      <trkpt lat="44.47206" lon="0.93425">
        <ele>77.52</ele>
        <time>2014-03-15T16:10:48Z</time>
      </trkpt>
      <trkpt lat="44.47206" lon="0.93427">
        <ele>76.08</ele>
        <time>2014-03-15T16:11:18Z</time>
      </trkpt>
    </trkseg>
  </trk>
</gpx>